sensor_id;sensor_type;location;lat;lon;timestamp;pressure;altitude;pressure_sealevel;temperature
66403;BMP180;53212;52.112;5.144;2023-07-20T00:00:59;101469.00;;;16.70
66403;BMP180;53212;52.112;5.144;2023-07-20T00:03:24;101465.00;;;16.66
66403;BMP180;53212;52.112;5.144;2023-07-20T00:05:51;101467.60;;;16.60
66403;BMP180;53212;52.112;5.144;2023-07-20T00:08:18;101470.00;;;16.60
66403;BMP180;53212;52.112;5.144;2023-07-20T00:10:44;101472.00;;;16.60
66403;BMP180;53212;52.112;5.144;2023-07-20T00:13:11;101476.40;;;16.60
66403;BMP180;53212;52.112;5.144;2023-07-20T00:15:37;101474.40;;;16.56
66403;BMP180;53212;52.112;5.144;2023-07-20T00:18:04;101477.00;;;16.50
66403;BMP180;53212;52.112;5.144;2023-07-20T00:20:29;101476.40;;;16.44
66403;BMP180;53212;52.112;5.144;2023-07-20T00:22:55;101470.60;;;16.40
66403;BMP180;53212;52.112;5.144;2023-07-20T00:25:23;101469.00;;;16.40
66403;BMP180;53212;52.112;5.144;2023-07-20T00:27:48;101472.80;;;16.40
66403;BMP180;53212;52.112;5.144;2023-07-20T00:30:14;101470.40;;;16.40
66403;BMP180;53212;52.112;5.144;2023-07-20T00:32:40;101475.20;;;16.40
66403;BMP180;53212;52.112;5.144;2023-07-20T00:35:05;101476.60;;;16.34
66403;BMP180;53212;52.112;5.144;2023-07-20T00:37:31;101476.00;;;16.30
66403;BMP180;53212;52.112;5.144;2023-07-20T00:39:56;101471.40;;;16.30
66403;BMP180;53212;52.112;5.144;2023-07-20T00:42:22;101472.80;;;16.30
66403;BMP180;53212;52.112;5.144;2023-07-20T00:44:47;101467.80;;;16.28
66403;BMP180;53212;52.112;5.144;2023-07-20T00:47:13;101465.40;;;16.20
66403;BMP180;53212;52.112;5.144;2023-07-20T00:49:39;101471.40;;;16.10
66403;BMP180;53212;52.112;5.144;2023-07-20T00:52:07;101466.40;;;16.00
66403;BMP180;53212;52.112;5.144;2023-07-20T00:54:33;101466.00;;;16.00
66403;BMP180;53212;52.112;5.144;2023-07-20T00:57:01;101468.00;;;16.00
66403;BMP180;53212;52.112;5.144;2023-07-20T00:59:27;101469.80;;;16.00
66403;BMP180;53212;52.112;5.144;2023-07-20T01:01:52;101466.60;;;15.90
66403;BMP180;53212;52.112;5.144;2023-07-20T01:04:18;101466.40;;;15.90
66403;BMP180;53212;52.112;5.144;2023-07-20T01:09:41;101468.80;;;15.80
66403;BMP180;53212;52.112;5.144;2023-07-20T01:14:46;101464.00;;;15.72
66403;BMP180;53212;52.112;5.144;2023-07-20T01:17:11;101463.00;;;15.66
66403;BMP180;53212;52.112;5.144;2023-07-20T01:19:37;101463.60;;;15.60
66403;BMP180;53212;52.112;5.144;2023-07-20T01:31:27;101471.40;;;15.50
66403;BMP180;53212;52.112;5.144;2023-07-20T01:33:58;101482.40;;;15.50
66403;BMP180;53212;52.112;5.144;2023-07-20T01:36:33;101480.80;;;15.40
66403;BMP180;53212;52.112;5.144;2023-07-20T01:38:59;101477.40;;;15.40
66403;BMP180;53212;52.112;5.144;2023-07-20T01:41:25;101478.80;;;15.30
66403;BMP180;53212;52.112;5.144;2023-07-20T01:43:51;101481.40;;;15.30
66403;BMP180;53212;52.112;5.144;2023-07-20T01:46:16;101475.00;;;15.30
66403;BMP180;53212;52.112;5.144;2023-07-20T01:48:42;101478.00;;;15.30
66403;BMP180;53212;52.112;5.144;2023-07-20T01:51:08;101477.60;;;15.20
66403;BMP180;53212;52.112;5.144;2023-07-20T01:53:33;101479.00;;;15.20
66403;BMP180;53212;52.112;5.144;2023-07-20T01:55:59;101477.20;;;15.20
66403;BMP180;53212;52.112;5.144;2023-07-20T01:58:24;101476.00;;;15.20
66403;BMP180;53212;52.112;5.144;2023-07-20T02:00:50;101481.00;;;15.20
66403;BMP180;53212;52.112;5.144;2023-07-20T02:03:16;101482.40;;;15.12
66403;BMP180;53212;52.112;5.144;2023-07-20T02:05:45;101481.60;;;15.10
66403;BMP180;53212;52.112;5.144;2023-07-20T02:08:10;101473.00;;;14.90
66403;BMP180;53212;52.112;5.144;2023-07-20T02:10:36;101475.20;;;14.80
66403;BMP180;53212;52.112;5.144;2023-07-20T02:13:02;101474.60;;;14.70
66403;BMP180;53212;52.112;5.144;2023-07-20T02:15:27;101474.80;;;14.70
66403;BMP180;53212;52.112;5.144;2023-07-20T02:17:54;101475.00;;;14.60
66403;BMP180;53212;52.112;5.144;2023-07-20T02:20:19;101471.80;;;14.64
66403;BMP180;53212;52.112;5.144;2023-07-20T02:22:45;101470.40;;;14.60
66403;BMP180;53212;52.112;5.144;2023-07-20T02:25:11;101471.00;;;14.64
66403;BMP180;53212;52.112;5.144;2023-07-20T02:27:37;101470.60;;;14.70
66403;BMP180;53212;52.112;5.144;2023-07-20T02:30:04;101470.00;;;14.60
66403;BMP180;53212;52.112;5.144;2023-07-20T02:32:31;101466.20;;;14.60
66403;BMP180;53212;52.112;5.144;2023-07-20T02:34:57;101471.80;;;14.60
66403;BMP180;53212;52.112;5.144;2023-07-20T02:37:23;101471.20;;;14.50
66403;BMP180;53212;52.112;5.144;2023-07-20T02:39:49;101480.40;;;14.30
66403;BMP180;53212;52.112;5.144;2023-07-20T02:42:15;101478.40;;;14.30
66403;BMP180;53212;52.112;5.144;2023-07-20T02:44:40;101480.20;;;14.30
66403;BMP180;53212;52.112;5.144;2023-07-20T02:47:06;101476.80;;;14.30
66403;BMP180;53212;52.112;5.144;2023-07-20T02:49:31;101478.00;;;14.40
66403;BMP180;53212;52.112;5.144;2023-07-20T02:51:57;101478.20;;;14.40
66403;BMP180;53212;52.112;5.144;2023-07-20T02:54:22;101483.80;;;14.40
66403;BMP180;53212;52.112;5.144;2023-07-20T02:56:47;101485.20;;;14.40
66403;BMP180;53212;52.112;5.144;2023-07-20T02:59:13;101486.60;;;14.30
66403;BMP180;53212;52.112;5.144;2023-07-20T03:01:38;101488.00;;;14.30
66403;BMP180;53212;52.112;5.144;2023-07-20T03:04:04;101486.40;;;14.30
66403;BMP180;53212;52.112;5.144;2023-07-20T03:06:30;101489.60;;;14.30
66403;BMP180;53212;52.112;5.144;2023-07-20T03:08:55;101496.00;;;14.30
66403;BMP180;53212;52.112;5.144;2023-07-20T03:11:21;101499.80;;;14.30
66403;BMP180;53212;52.112;5.144;2023-07-20T03:13:47;101505.40;;;14.30
66403;BMP180;53212;52.112;5.144;2023-07-20T03:16:15;101503.80;;;14.22
66403;BMP180;53212;52.112;5.144;2023-07-20T03:18:43;101505.20;;;14.20
66403;BMP180;53212;52.112;5.144;2023-07-20T03:21:09;101505.40;;;14.20
66403;BMP180;53212;52.112;5.144;2023-07-20T03:23:39;101503.20;;;14.20
66403;BMP180;53212;52.112;5.144;2023-07-20T03:26:05;101507.80;;;14.10
66403;BMP180;53212;52.112;5.144;2023-07-20T03:28:30;101508.60;;;14.10
66403;BMP180;53212;52.112;5.144;2023-07-20T03:30:57;101504.80;;;14.00
66403;BMP180;53212;52.112;5.144;2023-07-20T03:33:27;101503.40;;;14.00
66403;BMP180;53212;52.112;5.144;2023-07-20T03:35:53;101507.00;;;14.00
66403;BMP180;53212;52.112;5.144;2023-07-20T03:38:20;101503.40;;;13.90
66403;BMP180;53212;52.112;5.144;2023-07-20T03:40:58;101505.40;;;13.90
66403;BMP180;53212;52.112;5.144;2023-07-20T03:43:26;101503.40;;;13.90
66403;BMP180;53212;52.112;5.144;2023-07-20T03:45:52;101507.00;;;13.82
66403;BMP180;53212;52.112;5.144;2023-07-20T03:48:23;101510.20;;;13.80
66403;BMP180;53212;52.112;5.144;2023-07-20T03:50:51;101512.80;;;13.80
66403;BMP180;53212;52.112;5.144;2023-07-20T03:53:17;101506.60;;;13.80
66403;BMP180;53212;52.112;5.144;2023-07-20T03:55:48;101507.60;;;13.80
66403;BMP180;53212;52.112;5.144;2023-07-20T03:58:14;101503.00;;;13.80
66403;BMP180;53212;52.112;5.144;2023-07-20T04:00:40;101507.20;;;13.80
66403;BMP180;53212;52.112;5.144;2023-07-20T04:03:08;101508.00;;;13.70
66403;BMP180;53212;52.112;5.144;2023-07-20T04:05:33;101510.00;;;13.70
66403;BMP180;53212;52.112;5.144;2023-07-20T04:07:59;101518.60;;;13.70
66403;BMP180;53212;52.112;5.144;2023-07-20T04:10:24;101517.80;;;13.70
66403;BMP180;53212;52.112;5.144;2023-07-20T04:12:49;101518.80;;;13.70
66403;BMP180;53212;52.112;5.144;2023-07-20T04:15:15;101521.80;;;13.70
66403;BMP180;53212;52.112;5.144;2023-07-20T04:17:40;101520.60;;;13.70
66403;BMP180;53212;52.112;5.144;2023-07-20T04:20:07;101524.20;;;13.70
66403;BMP180;53212;52.112;5.144;2023-07-20T04:22:33;101527.60;;;13.70
66403;BMP180;53212;52.112;5.144;2023-07-20T04:24:59;101527.80;;;13.80
66403;BMP180;53212;52.112;5.144;2023-07-20T04:27:24;101524.40;;;13.80
66403;BMP180;53212;52.112;5.144;2023-07-20T04:29:50;101526.80;;;13.90
66403;BMP180;53212;52.112;5.144;2023-07-20T04:32:15;101528.20;;;13.90
66403;BMP180;53212;52.112;5.144;2023-07-20T04:34:41;101533.80;;;14.00
66403;BMP180;53212;52.112;5.144;2023-07-20T04:37:07;101532.80;;;14.00
66403;BMP180;53212;52.112;5.144;2023-07-20T04:39:33;101532.00;;;14.06
66403;BMP180;53212;52.112;5.144;2023-07-20T04:41:58;101537.40;;;14.10
66403;BMP180;53212;52.112;5.144;2023-07-20T04:44:24;101537.20;;;14.12
66403;BMP180;53212;52.112;5.144;2023-07-20T04:46:49;101536.60;;;14.14
66403;BMP180;53212;52.112;5.144;2023-07-20T04:49:15;101541.60;;;14.22
66403;BMP180;53212;52.112;5.144;2023-07-20T04:51:40;101541.20;;;14.30
66403;BMP180;53212;52.112;5.144;2023-07-20T04:54:06;101544.40;;;14.30
66403;BMP180;53212;52.112;5.144;2023-07-20T04:56:31;101544.80;;;14.30
66403;BMP180;53212;52.112;5.144;2023-07-20T04:58:57;101544.40;;;14.40
66403;BMP180;53212;52.112;5.144;2023-07-20T05:01:23;101544.80;;;14.40
66403;BMP180;53212;52.112;5.144;2023-07-20T05:03:49;101547.60;;;14.50
66403;BMP180;53212;52.112;5.144;2023-07-20T05:06:15;101547.60;;;14.60
66403;BMP180;53212;52.112;5.144;2023-07-20T05:08:41;101548.40;;;14.70
66403;BMP180;53212;52.112;5.144;2023-07-20T05:11:06;101549.20;;;14.80
66403;BMP180;53212;52.112;5.144;2023-07-20T05:13:33;101545.40;;;14.90
66403;BMP180;53212;52.112;5.144;2023-07-20T05:15:58;101549.40;;;15.00
66403;BMP180;53212;52.112;5.144;2023-07-20T05:18:24;101548.60;;;15.10
66403;BMP180;53212;52.112;5.144;2023-07-20T05:20:50;101551.00;;;15.10
66403;BMP180;53212;52.112;5.144;2023-07-20T05:23:18;101549.20;;;15.28
66403;BMP180;53212;52.112;5.144;2023-07-20T05:25:45;101553.20;;;15.58
66403;BMP180;53212;52.112;5.144;2023-07-20T05:28:11;101546.00;;;15.82
66403;BMP180;53212;52.112;5.144;2023-07-20T05:30:36;101547.00;;;16.20
66403;BMP180;53212;52.112;5.144;2023-07-20T05:33:01;101541.00;;;16.64
66403;BMP180;53212;52.112;5.144;2023-07-20T05:35:27;101539.20;;;17.08
66403;BMP180;53212;52.112;5.144;2023-07-20T05:37:52;101540.00;;;17.58
66403;BMP180;53212;52.112;5.144;2023-07-20T05:40:18;101538.00;;;18.06
66403;BMP180;53212;52.112;5.144;2023-07-20T05:42:48;101537.40;;;18.52
66403;BMP180;53212;52.112;5.144;2023-07-20T05:45:17;101540.20;;;18.94
66403;BMP180;53212;52.112;5.144;2023-07-20T05:47:43;101540.20;;;19.26
66403;BMP180;53212;52.112;5.144;2023-07-20T05:50:09;101538.20;;;19.64
66403;BMP180;53212;52.112;5.144;2023-07-20T05:52:35;101537.60;;;19.98
66403;BMP180;53212;52.112;5.144;2023-07-20T05:55:00;101539.40;;;20.30
66403;BMP180;53212;52.112;5.144;2023-07-20T05:57:25;101538.00;;;20.60
66403;BMP180;53212;52.112;5.144;2023-07-20T05:59:51;101540.60;;;20.94
66403;BMP180;53212;52.112;5.144;2023-07-20T06:02:16;101541.60;;;21.26
66403;BMP180;53212;52.112;5.144;2023-07-20T06:04:42;101550.00;;;21.58
66403;BMP180;53212;52.112;5.144;2023-07-20T06:07:07;101551.80;;;21.88
66403;BMP180;53212;52.112;5.144;2023-07-20T06:09:33;101553.00;;;22.18
66403;BMP180;53212;52.112;5.144;2023-07-20T06:11:59;101548.60;;;22.48
66403;BMP180;53212;52.112;5.144;2023-07-20T06:14:25;101553.20;;;22.60
66403;BMP180;53212;52.112;5.144;2023-07-20T06:16:50;101550.60;;;22.90
66403;BMP180;53212;52.112;5.144;2023-07-20T06:19:16;101553.20;;;23.04
66403;BMP180;53212;52.112;5.144;2023-07-20T06:21:42;101555.00;;;23.40
66403;BMP180;53212;52.112;5.144;2023-07-20T06:24:08;101553.80;;;23.60
66403;BMP180;53212;52.112;5.144;2023-07-20T06:26:33;101557.80;;;23.70
66403;BMP180;53212;52.112;5.144;2023-07-20T06:29:07;101560.40;;;23.80
66403;BMP180;53212;52.112;5.144;2023-07-20T06:31:35;101561.60;;;24.00
66403;BMP180;53212;52.112;5.144;2023-07-20T06:34:01;101559.80;;;24.00
66403;BMP180;53212;52.112;5.144;2023-07-20T06:36:27;101556.20;;;24.16
66403;BMP180;53212;52.112;5.144;2023-07-20T06:38:52;101561.40;;;24.20
66403;BMP180;53212;52.112;5.144;2023-07-20T06:41:18;101569.60;;;24.30
66403;BMP180;53212;52.112;5.144;2023-07-20T06:43:45;101570.40;;;24.30
66403;BMP180;53212;52.112;5.144;2023-07-20T06:46:10;101579.00;;;24.30
66403;BMP180;53212;52.112;5.144;2023-07-20T06:48:36;101573.60;;;24.50
66403;BMP180;53212;52.112;5.144;2023-07-20T06:51:01;101582.60;;;24.60
66403;BMP180;53212;52.112;5.144;2023-07-20T06:53:29;101580.20;;;24.70
66403;BMP180;53212;52.112;5.144;2023-07-20T06:55:54;101581.60;;;24.66
66403;BMP180;53212;52.112;5.144;2023-07-20T06:58:23;101584.80;;;24.38
66403;BMP180;53212;52.112;5.144;2023-07-20T07:00:48;101586.60;;;24.00
66403;BMP180;53212;52.112;5.144;2023-07-20T07:03:14;101590.40;;;24.10
66403;BMP180;53212;52.112;5.144;2023-07-20T07:05:39;101587.00;;;23.92
66403;BMP180;53212;52.112;5.144;2023-07-20T07:08:05;101585.40;;;23.38
66403;BMP180;53212;52.112;5.144;2023-07-20T07:10:31;101585.80;;;22.80
66403;BMP180;53212;52.112;5.144;2023-07-20T07:12:56;101585.40;;;22.72
66403;BMP180;53212;52.112;5.144;2023-07-20T07:15:22;101590.00;;;22.50
66403;BMP180;53212;52.112;5.144;2023-07-20T07:17:47;101592.40;;;22.20
66403;BMP180;53212;52.112;5.144;2023-07-20T07:20:13;101592.80;;;21.86
66403;BMP180;53212;52.112;5.144;2023-07-20T07:22:38;101593.80;;;21.60
66403;BMP180;53212;52.112;5.144;2023-07-20T07:25:04;101596.00;;;21.40
66403;BMP180;53212;52.112;5.144;2023-07-20T07:27:30;101595.60;;;21.44
66403;BMP180;53212;52.112;5.144;2023-07-20T07:29:55;101593.60;;;21.30
66403;BMP180;53212;52.112;5.144;2023-07-20T07:32:21;101593.00;;;21.40
66403;BMP180;53212;52.112;5.144;2023-07-20T07:34:47;101592.40;;;21.82
66403;BMP180;53212;52.112;5.144;2023-07-20T07:37:14;101590.80;;;21.80
66403;BMP180;53212;52.112;5.144;2023-07-20T07:39:39;101587.80;;;21.90
66403;BMP180;53212;52.112;5.144;2023-07-20T07:42:05;101596.40;;;22.16
66403;BMP180;53212;52.112;5.144;2023-07-20T07:44:31;101594.40;;;22.50
66403;BMP180;53212;52.112;5.144;2023-07-20T07:46:57;101591.80;;;22.80
66403;BMP180;53212;52.112;5.144;2023-07-20T07:49:22;101593.40;;;22.90
66403;BMP180;53212;52.112;5.144;2023-07-20T07:51:48;101598.40;;;23.16
66403;BMP180;53212;52.112;5.144;2023-07-20T07:54:13;101596.60;;;23.30
66403;BMP180;53212;52.112;5.144;2023-07-20T07:56:39;101603.00;;;23.50
66403;BMP180;53212;52.112;5.144;2023-07-20T07:59:06;101602.40;;;23.50
66403;BMP180;53212;52.112;5.144;2023-07-20T08:01:32;101604.20;;;23.50
66403;BMP180;53212;52.112;5.144;2023-07-20T08:03:57;101599.80;;;23.70
66403;BMP180;53212;52.112;5.144;2023-07-20T08:06:24;101604.00;;;23.68
66403;BMP180;53212;52.112;5.144;2023-07-20T08:08:50;101605.00;;;23.70
66403;BMP180;53212;52.112;5.144;2023-07-20T08:11:16;101605.40;;;23.80
66403;BMP180;53212;52.112;5.144;2023-07-20T08:13:43;101598.60;;;23.92
66403;BMP180;53212;52.112;5.144;2023-07-20T08:16:08;101598.00;;;24.10
66403;BMP180;53212;52.112;5.144;2023-07-20T08:18:34;101598.80;;;24.20
66403;BMP180;53212;52.112;5.144;2023-07-20T08:21:00;101601.60;;;24.20
66403;BMP180;53212;52.112;5.144;2023-07-20T08:23:25;101606.20;;;24.20
66403;BMP180;53212;52.112;5.144;2023-07-20T08:25:53;101601.20;;;24.10
66403;BMP180;53212;52.112;5.144;2023-07-20T08:28:18;101607.40;;;23.70
66403;BMP180;53212;52.112;5.144;2023-07-20T08:30:47;101601.80;;;23.30
66403;BMP180;53212;52.112;5.144;2023-07-20T08:33:15;101604.60;;;23.20
66403;BMP180;53212;52.112;5.144;2023-07-20T08:35:41;101613.80;;;23.00
66403;BMP180;53212;52.112;5.144;2023-07-20T08:38:08;101609.80;;;22.70
66403;BMP180;53212;52.112;5.144;2023-07-20T08:40:39;101614.40;;;22.44
66403;BMP180;53212;52.112;5.144;2023-07-20T08:43:05;101621.00;;;22.20
66403;BMP180;53212;52.112;5.144;2023-07-20T08:45:34;101620.20;;;22.10
66403;BMP180;53212;52.112;5.144;2023-07-20T08:48:05;101616.40;;;21.90
66403;BMP180;53212;52.112;5.144;2023-07-20T08:50:31;101616.40;;;21.70
66403;BMP180;53212;52.112;5.144;2023-07-20T08:52:59;101610.60;;;21.60
66403;BMP180;53212;52.112;5.144;2023-07-20T08:55:26;101614.60;;;21.50
66403;BMP180;53212;52.112;5.144;2023-07-20T08:57:56;101617.00;;;21.40
66403;BMP180;53212;52.112;5.144;2023-07-20T09:00:24;101616.40;;;21.30
66403;BMP180;53212;52.112;5.144;2023-07-20T09:02:52;101619.00;;;21.12
66403;BMP180;53212;52.112;5.144;2023-07-20T09:05:19;101618.40;;;21.10
66403;BMP180;53212;52.112;5.144;2023-07-20T09:07:45;101616.80;;;21.06
66403;BMP180;53212;52.112;5.144;2023-07-20T09:10:11;101611.40;;;21.00
66403;BMP180;53212;52.112;5.144;2023-07-20T09:12:42;101609.00;;;20.92
66403;BMP180;53212;52.112;5.144;2023-07-20T09:15:10;101611.60;;;20.98
66403;BMP180;53212;52.112;5.144;2023-07-20T09:17:36;101609.60;;;20.90
66403;BMP180;53212;52.112;5.144;2023-07-20T09:20:08;101612.00;;;20.82
66403;BMP180;53212;52.112;5.144;2023-07-20T09:22:38;101609.60;;;20.80
66403;BMP180;53212;52.112;5.144;2023-07-20T09:25:11;101612.60;;;20.80
66403;BMP180;53212;52.112;5.144;2023-07-20T09:27:44;101610.00;;;20.80
66403;BMP180;53212;52.112;5.144;2023-07-20T09:30:11;101617.60;;;20.90
66403;BMP180;53212;52.112;5.144;2023-07-20T09:32:48;101618.00;;;20.90
66403;BMP180;53212;52.112;5.144;2023-07-20T09:35:18;101614.80;;;21.00
66403;BMP180;53212;52.112;5.144;2023-07-20T09:37:53;101621.00;;;21.10
66403;BMP180;53212;52.112;5.144;2023-07-20T09:40:19;101614.60;;;21.10
66403;BMP180;53212;52.112;5.144;2023-07-20T09:42:45;101610.60;;;21.20
66403;BMP180;53212;52.112;5.144;2023-07-20T09:45:11;101608.80;;;21.30
66403;BMP180;53212;52.112;5.144;2023-07-20T09:47:37;101602.40;;;21.40
66403;BMP180;53212;52.112;5.144;2023-07-20T09:50:05;101603.20;;;21.40
66403;BMP180;53212;52.112;5.144;2023-07-20T09:52:37;101610.00;;;21.50
66403;BMP180;53212;52.112;5.144;2023-07-20T09:55:05;101609.20;;;21.30
66403;BMP180;53212;52.112;5.144;2023-07-20T09:57:33;101604.20;;;21.40
66403;BMP180;53212;52.112;5.144;2023-07-20T09:59:59;101601.60;;;21.58
66403;BMP180;53212;52.112;5.144;2023-07-20T10:02:33;101594.20;;;21.80
66403;BMP180;53212;52.112;5.144;2023-07-20T10:05:02;101595.20;;;22.10
66403;BMP180;53212;52.112;5.144;2023-07-20T10:07:30;101600.00;;;22.20
66403;BMP180;53212;52.112;5.144;2023-07-20T10:09:59;101597.80;;;22.20
66403;BMP180;53212;52.112;5.144;2023-07-20T10:12:27;101593.20;;;22.40
66403;BMP180;53212;52.112;5.144;2023-07-20T10:15:10;101590.00;;;22.50
66403;BMP180;53212;52.112;5.144;2023-07-20T10:17:43;101592.20;;;22.50
66403;BMP180;53212;52.112;5.144;2023-07-20T10:20:11;101593.80;;;22.40
66403;BMP180;53212;52.112;5.144;2023-07-20T10:22:38;101595.00;;;22.20
66403;BMP180;53212;52.112;5.144;2023-07-20T10:25:04;101593.20;;;22.04
66403;BMP180;53212;52.112;5.144;2023-07-20T10:27:30;101594.60;;;22.00
66403;BMP180;53212;52.112;5.144;2023-07-20T10:29:57;101587.20;;;21.96
66403;BMP180;53212;52.112;5.144;2023-07-20T10:32:24;101586.20;;;22.00
66403;BMP180;53212;52.112;5.144;2023-07-20T10:34:55;101587.40;;;22.00
66403;BMP180;53212;52.112;5.144;2023-07-20T10:37:48;101585.20;;;22.06
66403;BMP180;53212;52.112;5.144;2023-07-20T10:40:54;101587.40;;;22.10
66403;BMP180;53212;52.112;5.144;2023-07-20T10:43:20;101587.40;;;22.10
66403;BMP180;53212;52.112;5.144;2023-07-20T10:45:53;101588.40;;;22.16
66403;BMP180;53212;52.112;5.144;2023-07-20T10:48:25;101586.20;;;22.40
66403;BMP180;53212;52.112;5.144;2023-07-20T10:51:13;101585.80;;;22.50
66403;BMP180;53212;52.112;5.144;2023-07-20T10:53:40;101584.80;;;22.76
66403;BMP180;53212;52.112;5.144;2023-07-20T10:56:13;101582.60;;;23.10
66403;BMP180;53212;52.112;5.144;2023-07-20T10:58:41;101576.40;;;23.34
66403;BMP180;53212;52.112;5.144;2023-07-20T11:01:07;101577.20;;;23.56
66403;BMP180;53212;52.112;5.144;2023-07-20T11:03:37;101579.40;;;23.80
66403;BMP180;53212;52.112;5.144;2023-07-20T11:09:13;101577.20;;;24.20
66403;BMP180;53212;52.112;5.144;2023-07-20T11:11:47;101574.60;;;24.30
66403;BMP180;53212;52.112;5.144;2023-07-20T11:14:26;101571.00;;;24.40
66403;BMP180;53212;52.112;5.144;2023-07-20T11:17:14;101561.80;;;24.50
66403;BMP180;53212;52.112;5.144;2023-07-20T11:19:39;101561.60;;;24.70
66403;BMP180;53212;52.112;5.144;2023-07-20T11:22:09;101565.80;;;24.50
66403;BMP180;53212;52.112;5.144;2023-07-20T11:24:39;101562.60;;;24.30
66403;BMP180;53212;52.112;5.144;2023-07-20T11:27:05;101562.40;;;24.20
66403;BMP180;53212;52.112;5.144;2023-07-20T11:29:31;101559.60;;;24.32
66403;BMP180;53212;52.112;5.144;2023-07-20T11:31:57;101556.20;;;24.48
66403;BMP180;53212;52.112;5.144;2023-07-20T11:34:26;101558.00;;;24.50
66403;BMP180;53212;52.112;5.144;2023-07-20T11:36:52;101558.80;;;24.46
66403;BMP180;53212;52.112;5.144;2023-07-20T11:39:21;101549.80;;;24.50
66403;BMP180;53212;52.112;5.144;2023-07-20T11:41:55;101547.20;;;24.30
66403;BMP180;53212;52.112;5.144;2023-07-20T11:44:23;101547.60;;;24.30
66403;BMP180;53212;52.112;5.144;2023-07-20T11:47:08;101546.80;;;24.08
66403;BMP180;53212;52.112;5.144;2023-07-20T11:49:42;101548.80;;;23.90
66403;BMP180;53212;52.112;5.144;2023-07-20T11:52:14;101553.80;;;23.80
66403;BMP180;53212;52.112;5.144;2023-07-20T11:54:41;101550.00;;;24.00
66403;BMP180;53212;52.112;5.144;2023-07-20T11:57:07;101541.00;;;24.34
66403;BMP180;53212;52.112;5.144;2023-07-20T11:59:33;101541.80;;;24.48
66403;BMP180;53212;52.112;5.144;2023-07-20T12:02:01;101536.40;;;24.68
66403;BMP180;53212;52.112;5.144;2023-07-20T12:04:28;101536.40;;;24.98
66403;BMP180;53212;52.112;5.144;2023-07-20T12:06:54;101534.80;;;25.10
66403;BMP180;53212;52.112;5.144;2023-07-20T12:09:20;101535.80;;;25.30
66403;BMP180;53212;52.112;5.144;2023-07-20T12:11:49;101537.00;;;25.20
66403;BMP180;53212;52.112;5.144;2023-07-20T12:14:15;101534.00;;;25.40
66403;BMP180;53212;52.112;5.144;2023-07-20T12:16:41;101536.00;;;25.50
66403;BMP180;53212;52.112;5.144;2023-07-20T12:19:13;101537.80;;;25.50
66403;BMP180;53212;52.112;5.144;2023-07-20T12:21:41;101530.00;;;25.20
66403;BMP180;53212;52.112;5.144;2023-07-20T12:24:11;101530.40;;;24.86
66403;BMP180;53212;52.112;5.144;2023-07-20T12:26:37;101530.80;;;24.60
66403;BMP180;53212;52.112;5.144;2023-07-20T12:29:03;101532.80;;;24.30
66403;BMP180;53212;52.112;5.144;2023-07-20T12:31:29;101532.60;;;24.10
66403;BMP180;53212;52.112;5.144;2023-07-20T12:33:57;101536.00;;;24.02
66403;BMP180;53212;52.112;5.144;2023-07-20T12:36:24;101534.80;;;24.00
66403;BMP180;53212;52.112;5.144;2023-07-20T12:38:50;101535.80;;;24.00
66403;BMP180;53212;52.112;5.144;2023-07-20T12:41:15;101540.40;;;24.08
66403;BMP180;53212;52.112;5.144;2023-07-20T12:43:42;101536.60;;;24.00
66403;BMP180;53212;52.112;5.144;2023-07-20T12:46:08;101534.60;;;24.04
66403;BMP180;53212;52.112;5.144;2023-07-20T12:48:36;101527.40;;;23.90
66403;BMP180;53212;52.112;5.144;2023-07-20T12:51:05;101532.00;;;23.80
66403;BMP180;53212;52.112;5.144;2023-07-20T12:53:31;101532.40;;;23.80
66403;BMP180;53212;52.112;5.144;2023-07-20T12:55:58;101531.20;;;24.00
66403;BMP180;53212;52.112;5.144;2023-07-20T12:58:23;101527.60;;;24.30
66403;BMP180;53212;52.112;5.144;2023-07-20T13:00:49;101522.20;;;24.50
66403;BMP180;53212;52.112;5.144;2023-07-20T13:03:14;101523.80;;;24.78
66403;BMP180;53212;52.112;5.144;2023-07-20T13:05:41;101529.00;;;25.10
66403;BMP180;53212;52.112;5.144;2023-07-20T13:08:07;101527.60;;;25.20
66403;BMP180;53212;52.112;5.144;2023-07-20T13:10:32;101525.20;;;25.32
66403;BMP180;53212;52.112;5.144;2023-07-20T13:13:00;101521.80;;;25.42
66403;BMP180;53212;52.112;5.144;2023-07-20T13:15:31;101521.60;;;25.94
66403;BMP180;53212;52.112;5.144;2023-07-20T13:17:57;101517.60;;;26.30
66403;BMP180;53212;52.112;5.144;2023-07-20T13:20:24;101513.60;;;26.50
66403;BMP180;53212;52.112;5.144;2023-07-20T13:22:50;101515.00;;;26.60
66403;BMP180;53212;52.112;5.144;2023-07-20T13:25:16;101512.20;;;26.40
66403;BMP180;53212;52.112;5.144;2023-07-20T13:27:41;101512.40;;;26.30
66403;BMP180;53212;52.112;5.144;2023-07-20T13:30:07;101508.20;;;26.22
66403;BMP180;53212;52.112;5.144;2023-07-20T13:32:35;101508.00;;;26.10
66403;BMP180;53212;52.112;5.144;2023-07-20T13:35:01;101507.00;;;25.90
66403;BMP180;53212;52.112;5.144;2023-07-20T13:37:26;101512.80;;;25.92
66403;BMP180;53212;52.112;5.144;2023-07-20T13:39:52;101503.80;;;26.00
66403;BMP180;53212;52.112;5.144;2023-07-20T13:42:18;101502.80;;;26.00
66403;BMP180;53212;52.112;5.144;2023-07-20T13:44:43;101496.40;;;26.00
66403;BMP180;53212;52.112;5.144;2023-07-20T13:47:08;101499.60;;;26.18
66403;BMP180;53212;52.112;5.144;2023-07-20T13:49:34;101504.20;;;26.08
66403;BMP180;53212;52.112;5.144;2023-07-20T13:52:00;101497.00;;;25.80
66403;BMP180;53212;52.112;5.144;2023-07-20T13:54:25;101500.00;;;25.80
66403;BMP180;53212;52.112;5.144;2023-07-20T13:56:51;101495.20;;;25.70
66403;BMP180;53212;52.112;5.144;2023-07-20T13:59:18;101493.40;;;25.58
66403;BMP180;53212;52.112;5.144;2023-07-20T14:01:43;101489.80;;;25.40
66403;BMP180;53212;52.112;5.144;2023-07-20T14:04:08;101486.00;;;25.40
66403;BMP180;53212;52.112;5.144;2023-07-20T14:06:34;101480.40;;;25.30
66403;BMP180;53212;52.112;5.144;2023-07-20T14:09:01;101476.80;;;25.30
66403;BMP180;53212;52.112;5.144;2023-07-20T14:11:26;101474.00;;;25.20
66403;BMP180;53212;52.112;5.144;2023-07-20T14:13:52;101477.60;;;25.10